Time;durP1;ratioP1;P1;durP2;ratioP2;P2;SDS_P1;SDS_P2;PMS_P1;PMS_P2;Temp;Humidity;BMP_temperature;BMP_pressure;BME280_temperature;BME280_humidity;BME280_pressure;Samples;Min_cycle;Max_cycle;Signal;HPM_P1;HPM_P2
2022/06/05 00:01:11;;;;;;;11.05;7.28;;;;;;;;;;5014062;28;20056;-61
2022/06/05 00:04:03;;;;;;;10.00;7.20;;;;;;;;;;5030612;28;20205;-60
2022/06/05 00:06:31;;;;;;;11.05;7.22;;;;;;;;;;5032710;28;20527;-60
2022/06/05 00:09:19;;;;;;;10.45;7.00;;;;;;;;;;5031455;28;20812;-60
2022/06/05 00:11:59;;;;;;;11.38;6.82;;;;;;;;;;5028761;28;20056;-60
2022/06/05 00:14:24;;;;;;;8.82;6.95;;;;;;;;;;5049048;28;20026;-61
2022/06/05 00:16:50;;;;;;;12.20;7.55;;;;;;;;;;5029557;28;20493;-60
2022/06/05 00:19:16;;;;;;;8.55;6.82;;;;;;;;;;5032960;28;20029;-60
2022/06/05 00:21:41;;;;;;;10.00;6.60;;;;;;;;;;5028443;28;20045;-60
2022/06/05 00:24:07;;;;;;;9.75;6.88;;;;;;;;;;5032661;28;20118;-60
2022/06/05 00:27:23;;;;;;;9.50;6.78;;;;;;;;;;5032137;28;20035;-61
2022/06/05 00:30:01;;;;;;;9.13;6.60;;;;;;;;;;5029324;28;20485;-61
2022/06/05 00:32:44;;;;;;;9.75;6.93;;;;;;;;;;5033371;28;20037;-60
2022/06/05 00:35:38;;;;;;;9.30;6.90;;;;;;;;;;5027834;28;20111;-61
2022/06/05 00:38:29;;;;;;;9.40;6.63;;;;;;;;;;5015960;28;20072;-61
2022/06/05 00:41:28;;;;;;;10.18;6.63;;;;;;;;;;4995766;28;20076;-61
2022/06/05 00:43:59;;;;;;;9.15;6.38;;;;;;;;;;5020423;28;20120;-61
2022/06/05 00:46:26;;;;;;;10.73;6.93;;;;;;;;;;5031937;28;20060;-61
2022/06/05 00:48:51;;;;;;;11.30;6.47;;;;;;;;;;5029248;28;20033;-61
2022/06/05 00:51:17;;;;;;;10.88;6.72;;;;;;;;;;5032347;28;20121;-61
2022/06/05 00:53:42;;;;;;;10.18;6.53;;;;;;;;;;5026865;28;20033;-61
2022/06/05 00:56:10;;;;;;;9.35;6.57;;;;;;;;;;5030061;28;20069;-61
2022/06/05 00:58:36;;;;;;;8.70;6.32;;;;;;;;;;5031532;28;20043;-63
2022/06/05 01:01:02;;;;;;;10.85;6.40;;;;;;;;;;5030156;28;20025;-61
2022/06/05 01:03:27;;;;;;;9.30;6.20;;;;;;;;;;5032117;28;20095;-61
2022/06/05 01:05:53;;;;;;;9.05;6.70;;;;;;;;;;5030163;28;20135;-60
2022/06/05 01:08:18;;;;;;;9.70;6.13;;;;;;;;;;5023578;28;20478;-61
2022/06/05 01:10:52;;;;;;;9.55;6.55;;;;;;;;;;5025867;28;20037;-60
2022/06/05 01:13:43;;;;;;;8.43;6.10;;;;;;;;;;5030565;28;20036;-60
2022/06/05 01:16:15;;;;;;;9.07;6.53;;;;;;;;;;5029269;28;20498;-60
2022/06/05 01:18:46;;;;;;;9.18;6.35;;;;;;;;;;5010962;28;20390;-61
2022/06/05 01:21:47;;;;;;;8.88;6.32;;;;;;;;;;5012363;28;20037;-60
2022/06/05 01:24:33;;;;;;;9.00;6.20;;;;;;;;;;4997416;28;20046;-61
2022/06/05 01:27:01;;;;;;;8.35;6.25;;;;;;;;;;5029615;28;20029;-61
2022/06/05 01:30:15;;;;;;;9.77;6.68;;;;;;;;;;5035669;28;20048;-61
2022/06/05 01:33:00;;;;;;;7.85;6.40;;;;;;;;;;5011820;28;20120;-61
2022/06/05 01:35:36;;;;;;;12.60;6.93;;;;;;;;;;5004542;28;20037;-61
2022/06/05 01:38:14;;;;;;;9.27;6.70;;;;;;;;;;5031198;28;20545;-61
2022/06/05 01:40:48;;;;;;;9.15;6.65;;;;;;;;;;5030340;28;20493;-61
2022/06/05 01:43:19;;;;;;;8.68;6.57;;;;;;;;;;5030497;28;20120;-60
2022/06/05 01:45:47;;;;;;;;;;;;;;;;;;5030390;28;20037;-61
2022/06/05 01:48:27;;;;;;;8.93;6.78;;;;;;;;;;5025618;28;20273;-61
2022/06/05 01:51:06;;;;;;;12.32;7.25;;;;;;;;;;5029293;28;20045;-61
2022/06/05 01:53:42;;;;;;;9.80;6.82;;;;;;;;;;5030998;28;20087;-61
2022/06/05 01:56:11;;;;;;;9.75;6.63;;;;;;;;;;5029231;28;20053;-61
2022/06/05 01:58:42;;;;;;;10.35;6.75;;;;;;;;;;5030693;28;20033;-61
2022/06/05 02:01:21;;;;;;;10.45;6.82;;;;;;;;;;5029450;28;20484;-61
2022/06/05 02:04:18;;;;;;;8.75;6.72;;;;;;;;;;5026798;28;20485;-61
2022/06/05 02:06:50;;;;;;;9.15;6.60;;;;;;;;;;5026957;28;20193;-61
2022/06/05 02:09:23;;;;;;;10.23;7.07;;;;;;;;;;5011628;28;20037;-61
2022/06/05 02:11:49;;;;;;;8.80;6.80;;;;;;;;;;5025301;28;20402;-61
2022/06/05 02:14:16;;;;;;;11.60;6.93;;;;;;;;;;5029250;28;20052;-60
2022/06/05 02:16:42;;;;;;;9.68;6.78;;;;;;;;;;5028316;28;20033;-61
2022/06/05 02:19:14;;;;;;;8.77;6.82;;;;;;;;;;5000207;28;20046;-61
2022/06/05 02:21:40;;;;;;;10.05;6.68;;;;;;;;;;5005772;28;20112;-60
2022/06/05 02:24:08;;;;;;;9.77;6.80;;;;;;;;;;5026977;28;20186;-61
2022/06/05 02:26:33;;;;;;;8.77;6.43;;;;;;;;;;5030920;28;20075;-60
2022/06/05 02:29:05;;;;;;;9.52;6.70;;;;;;;;;;5027975;28;20386;-60
2022/06/05 02:32:26;;;;;;;9.57;6.78;;;;;;;;;;5030572;28;20026;-61
2022/06/05 02:35:25;;;;;;;10.30;7.07;;;;;;;;;;4997040;28;20470;-60
2022/06/05 02:38:04;;;;;;;10.13;6.82;;;;;;;;;;5028617;28;20048;-60
2022/06/05 02:40:32;;;;;;;11.25;6.80;;;;;;;;;;5031425;28;20466;-61
2022/06/05 02:43:39;;;;;;;9.40;7.07;;;;;;;;;;5023143;28;20072;-61
2022/06/05 02:46:27;;;;;;;9.30;6.55;;;;;;;;;;5011786;28;20117;-61
2022/06/05 02:49:09;;;;;;;10.30;6.90;;;;;;;;;;5027085;28;20052;-61
2022/06/05 02:51:39;;;;;;;9.25;6.80;;;;;;;;;;5011472;28;20041;-61
2022/06/05 02:54:04;;;;;;;8.80;6.50;;;;;;;;;;5031408;28;20516;-60
2022/06/05 02:56:31;;;;;;;10.43;6.72;;;;;;;;;;5033092;28;20049;-60
2022/06/05 02:58:59;;;;;;;10.68;6.65;;;;;;;;;;5030893;28;20079;-60
2022/06/05 03:04:10;;;;;;;10.73;7.05;;;;;;;;;;5024062;28;20033;-61
2022/06/05 03:06:41;;;;;;;8.85;6.15;;;;;;;;;;5015956;28;20034;-61
2022/06/05 03:09:07;;;;;;;11.32;6.82;;;;;;;;;;5018866;28;20063;-60
2022/06/05 03:11:33;;;;;;;8.85;6.60;;;;;;;;;;5014148;28;20038;-61
2022/06/05 03:13:58;;;;;;;8.85;6.50;;;;;;;;;;5030379;28;20036;-61
2022/06/05 03:16:25;;;;;;;9.35;6.53;;;;;;;;;;5033053;28;20065;-61
2022/06/05 03:18:50;;;;;;;10.80;6.75;;;;;;;;;;5028067;28;20060;-61
2022/06/05 03:21:16;;;;;;;10.82;7.03;;;;;;;;;;5002399;28;20025;-61
2022/06/05 03:23:41;;;;;;;10.35;7.30;;;;;;;;;;5015685;28;20040;-61
2022/06/05 03:26:11;;;;;;;10.75;7.13;;;;;;;;;;5032888;28;20037;-61
2022/06/05 03:28:37;;;;;;;10.07;7.32;;;;;;;;;;5047346;28;20034;-61
2022/06/05 03:31:07;;;;;;;11.98;7.05;;;;;;;;;;5033210;28;20040;-61
2022/06/05 03:33:33;;;;;;;9.48;6.90;;;;;;;;;;5030206;28;20037;-61
2022/06/05 03:35:59;;;;;;;9.82;7.22;;;;;;;;;;5030681;28;20042;-61
2022/06/05 03:38:25;;;;;;;10.10;7.07;;;;;;;;;;5028325;28;20478;-60
2022/06/05 03:40:50;;;;;;;10.98;7.50;;;;;;;;;;5024032;28;20581;-60
2022/06/05 03:43:16;;;;;;;11.02;7.47;;;;;;;;;;5011637;28;20120;-61
2022/06/05 03:45:42;;;;;;;16.00;7.47;;;;;;;;;;5030500;28;20053;-61
2022/06/05 03:48:07;;;;;;;9.85;7.38;;;;;;;;;;5033144;28;20056;-61
2022/06/05 03:50:34;;;;;;;10.98;7.60;;;;;;;;;;5029906;28;20467;-61
2022/06/05 03:52:59;;;;;;;10.77;7.68;;;;;;;;;;5032908;28;20034;-61
2022/06/05 03:55:25;;;;;;;9.57;7.43;;;;;;;;;;5030811;28;20095;-61
2022/06/05 03:57:54;;;;;;;9.65;7.32;;;;;;;;;;5015460;28;20066;-61
2022/06/05 04:00:21;;;;;;;10.55;7.38;;;;;;;;;;5032280;28;20084;-61
2022/06/05 04:02:47;;;;;;;12.77;7.70;;;;;;;;;;5032349;28;20053;-61
2022/06/05 04:05:15;;;;;;;11.40;7.85;;;;;;;;;;5030659;28;20701;-63
2022/06/05 04:07:40;;;;;;;10.45;7.50;;;;;;;;;;5033434;28;20474;-61
2022/06/05 04:10:07;;;;;;;11.07;7.50;;;;;;;;;;5031087;28;20060;-61
2022/06/05 04:12:32;;;;;;;10.95;7.68;;;;;;;;;;5031919;28;20064;-61
2022/06/05 04:15:01;;;;;;;10.45;7.47;;;;;;;;;;5029603;28;20438;-60
2022/06/05 04:17:26;;;;;;;11.05;7.82;;;;;;;;;;5033385;28;20037;-62
2022/06/05 04:19:53;;;;;;;10.80;7.80;;;;;;;;;;5028833;28;20037;-61
2022/06/05 04:22:19;;;;;;;10.38;7.50;;;;;;;;;;5031191;28;20033;-61
2022/06/05 04:24:44;;;;;;;13.57;7.35;;;;;;;;;;5028651;28;20048;-61
2022/06/05 04:27:10;;;;;;;10.70;7.45;;;;;;;;;;5024208;28;20037;-61
2022/06/05 04:29:35;;;;;;;10.77;7.35;;;;;;;;;;5033258;28;20030;-61
2022/06/05 04:32:01;;;;;;;11.73;7.97;;;;;;;;;;5029565;28;20148;-61
2022/06/05 04:34:26;;;;;;;9.55;7.40;;;;;;;;;;5014242;28;20144;-61
2022/06/05 04:36:52;;;;;;;10.23;7.47;;;;;;;;;;5027394;28;20466;-60
2022/06/05 04:39:18;;;;;;;9.20;7.65;;;;;;;;;;5032666;28;20026;-61
2022/06/05 04:41:45;;;;;;;9.45;7.80;;;;;;;;;;5030382;28;20029;-61
2022/06/05 04:44:13;;;;;;;10.52;7.93;;;;;;;;;;5031969;28;20029;-61
2022/06/05 04:46:39;;;;;;;10.23;7.85;;;;;;;;;;5030789;28;20503;-61
2022/06/05 04:49:08;;;;;;;11.90;7.93;;;;;;;;;;5030820;28;20041;-60
2022/06/05 04:51:34;;;;;;;12.63;8.43;;;;;;;;;;5011027;28;20033;-60
2022/06/05 04:54:01;;;;;;;11.48;7.85;;;;;;;;;;5031769;28;20030;-60
2022/06/05 04:56:27;;;;;;;8.68;7.70;;;;;;;;;;5028846;28;20053;-60
2022/06/05 04:58:53;;;;;;;9.45;8.25;;;;;;;;;;5032775;28;20439;-61
2022/06/05 05:01:28;;;;;;;10.48;8.02;;;;;;;;;;5029651;28;20088;-61
2022/06/05 05:04:00;;;;;;;10.77;8.48;;;;;;;;;;5031052;28;20144;-60
2022/06/05 05:06:27;;;;;;;10.70;8.10;;;;;;;;;;5029341;28;20044;-61
2022/06/05 05:08:53;;;;;;;10.57;8.32;;;;;;;;;;5032500;28;20035;-61
2022/06/05 05:11:20;;;;;;;15.02;7.95;;;;;;;;;;5031139;28;20116;-61
2022/06/05 05:13:45;;;;;;;11.10;8.43;;;;;;;;;;5031293;28;20179;-61
2022/06/05 05:16:11;;;;;;;11.52;8.90;;;;;;;;;;5042150;28;20534;-61
2022/06/05 05:18:37;;;;;;;9.45;7.88;;;;;;;;;;5030064;28;20032;-61
2022/06/05 05:21:11;;;;;;;10.98;8.40;;;;;;;;;;5030197;28;20042;-60
2022/06/05 05:23:37;;;;;;;10.45;8.75;;;;;;;;;;5028510;28;20029;-61
2022/06/05 05:26:07;;;;;;;10.85;7.93;;;;;;;;;;5028941;28;20043;-61
2022/06/05 05:28:33;;;;;;;11.40;8.77;;;;;;;;;;5025958;28;20034;-61
2022/06/05 05:30:58;;;;;;;10.68;8.20;;;;;;;;;;5012215;28;20407;-61
2022/06/05 05:33:24;;;;;;;12.88;8.32;;;;;;;;;;5016029;28;21779;-60
2022/06/05 05:35:49;;;;;;;10.40;7.57;;;;;;;;;;5029179;28;20112;-61
2022/06/05 05:38:15;;;;;;;9.90;7.70;;;;;;;;;;5025327;28;20037;-63
2022/06/05 05:43:24;;;;;;;9.80;8.00;;;;;;;;;;5031183;28;20228;-60
2022/06/05 05:45:49;;;;;;;10.15;7.82;;;;;;;;;;5031622;28;20359;-61
2022/06/05 05:48:15;;;;;;;10.10;7.60;;;;;;;;;;5028659;28;20029;-61
2022/06/05 05:50:44;;;;;;;10.80;7.70;;;;;;;;;;5030689;28;20029;-61
2022/06/05 05:53:10;;;;;;;8.85;7.07;;;;;;;;;;5025836;28;20112;-61
2022/06/05 05:55:35;;;;;;;11.20;7.53;;;;;;;;;;5030139;28;20132;-60
2022/06/05 05:58:01;;;;;;;10.70;7.93;;;;;;;;;;5020307;28;20045;-61
2022/06/05 06:00:26;;;;;;;9.27;7.90;;;;;;;;;;5031323;28;20095;-61
2022/06/05 06:02:52;;;;;;;9.73;7.95;;;;;;;;;;5029018;28;20363;-61
2022/06/05 06:05:18;;;;;;;10.32;8.30;;;;;;;;;;5026348;28;20262;-61
2022/06/05 06:07:44;;;;;;;12.02;7.95;;;;;;;;;;5026004;28;20037;-61
2022/06/05 06:10:16;;;;;;;8.70;7.80;;;;;;;;;;5027494;28;20041;-61
2022/06/05 06:12:41;;;;;;;10.90;8.32;;;;;;;;;;5030950;28;20474;-60
2022/06/05 06:15:07;;;;;;;10.43;8.55;;;;;;;;;;5030676;28;20036;-61
2022/06/05 06:17:33;;;;;;;9.82;8.05;;;;;;;;;;5029914;28;20045;-61
2022/06/05 06:19:58;;;;;;;12.15;8.52;;;;;;;;;;5031343;28;20037;-61
2022/06/05 06:22:24;;;;;;;10.25;8.00;;;;;;;;;;5041939;28;20037;-61
2022/06/05 06:24:49;;;;;;;12.50;7.97;;;;;;;;;;5011456;28;20029;-61
2022/06/05 06:27:15;;;;;;;10.68;7.95;;;;;;;;;;5031619;28;20033;-61
2022/06/05 06:29:40;;;;;;;10.38;7.97;;;;;;;;;;5034537;28;20057;-61
2022/06/05 06:32:06;;;;;;;11.38;7.80;;;;;;;;;;5031821;28;20038;-61
2022/06/05 06:34:31;;;;;;;9.90;7.75;;;;;;;;;;5033394;28;20156;-58
2022/06/05 06:36:57;;;;;;;9.70;8.20;;;;;;;;;;5033949;28;20052;-59
2022/06/05 06:39:23;;;;;;;10.20;8.00;;;;;;;;;;5034552;28;20164;-59
2022/06/05 06:41:49;;;;;;;9.35;8.23;;;;;;;;;;5035338;28;20458;-59
2022/06/05 06:44:16;;;;;;;9.77;7.53;;;;;;;;;;5033813;28;20080;-59
2022/06/05 06:46:41;;;;;;;8.77;7.38;;;;;;;;;;5022365;28;20041;-59
2022/06/05 06:49:07;;;;;;;9.68;7.53;;;;;;;;;;5014429;28;20037;-59
2022/06/05 06:51:33;;;;;;;8.77;7.85;;;;;;;;;;5026631;28;20037;-59
2022/06/05 06:53:58;;;;;;;8.75;7.82;;;;;;;;;;5016300;28;20037;-59
2022/06/05 06:56:27;;;;;;;8.88;7.95;;;;;;;;;;5032773;28;20052;-59
2022/06/05 06:58:54;;;;;;;12.65;8.60;;;;;;;;;;5029889;28;20064;-60
2022/06/05 07:01:20;;;;;;;10.90;7.90;;;;;;;;;;5032642;28;20052;-60
2022/06/05 07:03:45;;;;;;;9.20;7.97;;;;;;;;;;5033079;28;20034;-59
2022/06/05 07:06:15;;;;;;;8.80;7.90;;;;;;;;;;5032569;28;20397;-60
2022/06/05 07:08:42;;;;;;;8.32;7.40;;;;;;;;;;5032088;28;20397;-59
2022/06/05 07:11:09;;;;;;;9.75;7.32;;;;;;;;;;5028900;28;20386;-60
2022/06/05 07:13:35;;;;;;;10.02;7.65;;;;;;;;;;5034117;28;20112;-59
2022/06/05 07:16:01;;;;;;;10.73;7.40;;;;;;;;;;5033751;28;20040;-60
2022/06/05 07:18:26;;;;;;;9.30;6.88;;;;;;;;;;5030999;28;20037;-59
2022/06/05 07:20:52;;;;;;;7.93;6.53;;;;;;;;;;5034066;28;20040;-59
2022/06/05 07:23:18;;;;;;;8.27;6.68;;;;;;;;;;5032102;28;20389;-58
2022/06/05 07:25:49;;;;;;;8.50;6.63;;;;;;;;;;5033311;28;20041;-60
2022/06/05 07:28:14;;;;;;;7.63;6.07;;;;;;;;;;5023955;28;20030;-58
2022/06/05 07:30:40;;;;;;;7.53;6.18;;;;;;;;;;5034240;28;20036;-59
2022/06/05 07:33:05;;;;;;;7.85;6.63;;;;;;;;;;5032910;28;20440;-60
2022/06/05 07:35:31;;;;;;;9.63;6.30;;;;;;;;;;5032115;28;20484;-58
2022/06/05 07:37:57;;;;;;;7.30;6.50;;;;;;;;;;5014432;28;20100;-59
2022/06/05 07:40:22;;;;;;;7.50;6.35;;;;;;;;;;5018866;28;20137;-59
2022/06/05 07:42:47;;;;;;;8.18;6.07;;;;;;;;;;4995711;28;20041;-59
2022/06/05 07:45:15;;;;;;;7.05;6.28;;;;;;;;;;5019784;28;20113;-60
2022/06/05 07:47:44;;;;;;;8.57;6.22;;;;;;;;;;5031828;28;20091;-59
2022/06/05 07:50:12;;;;;;;7.47;6.10;;;;;;;;;;5014229;28;20033;-58
2022/06/05 07:55:21;;;;;;;7.55;6.35;;;;;;;;;;5029376;28;20134;-57
2022/06/05 07:57:47;;;;;;;7.68;6.35;;;;;;;;;;5031452;28;20116;-58
2022/06/05 08:00:13;;;;;;;9.55;6.30;;;;;;;;;;5031150;28;20121;-59
2022/06/05 08:02:39;;;;;;;9.23;7.32;;;;;;;;;;5033657;28;20033;-58
2022/06/05 08:05:06;;;;;;;7.43;6.00;;;;;;;;;;5015347;28;20125;-58
2022/06/05 08:07:33;;;;;;;6.85;6.15;;;;;;;;;;5014186;28;20038;-59
2022/06/05 08:10:00;;;;;;;8.68;6.70;;;;;;;;;;5006700;28;20040;-57
2022/06/05 08:12:33;;;;;;;7.43;6.32;;;;;;;;;;4995219;28;20290;-58
2022/06/05 08:15:05;;;;;;;7.60;6.47;;;;;;;;;;5002019;28;20045;-59
2022/06/05 08:17:32;;;;;;;8.57;6.35;;;;;;;;;;4995476;28;20069;-59
2022/06/05 08:19:58;;;;;;;7.35;6.30;;;;;;;;;;5028313;28;20474;-59
2022/06/05 08:22:25;;;;;;;7.47;5.72;;;;;;;;;;5014960;28;20034;-59
2022/06/05 08:24:54;;;;;;;10.10;6.45;;;;;;;;;;5025545;28;20033;-58
2022/06/05 08:27:23;;;;;;;7.70;6.43;;;;;;;;;;5024528;28;20083;-57
2022/06/05 08:29:50;;;;;;;7.32;6.03;;;;;;;;;;5013044;28;20064;-59
2022/06/05 08:32:16;;;;;;;7.18;6.07;;;;;;;;;;5032101;28;20033;-57
2022/06/05 08:34:43;;;;;;;8.27;6.00;;;;;;;;;;5032252;28;20122;-58
2022/06/05 08:43:16;;;;;;;8.32;6.50;;;;;;;;;;5026417;28;20039;-59
2022/06/05 08:46:08;;;;;;;8.38;6.28;;;;;;;;;;5031324;28;20033;-59
2022/06/05 08:48:38;;;;;;;7.45;6.75;;;;;;;;;;5024590;28;20064;-60
2022/06/05 08:51:34;;;;;;;8.30;6.68;;;;;;;;;;5032802;28;20025;-59
2022/06/05 08:54:23;;;;;;;8.65;7.30;;;;;;;;;;5013924;28;20100;-59
2022/06/05 08:57:27;;;;;;;8.23;7.38;;;;;;;;;;5029213;28;20046;-59
2022/06/05 09:00:17;;;;;;;11.18;7.65;;;;;;;;;;5032536;28;20097;-59
2022/06/05 09:03:11;;;;;;;8.32;7.53;;;;;;;;;;5045213;28;20029;-59
2022/06/05 09:05:50;;;;;;;8.73;7.47;;;;;;;;;;5000971;28;20148;-60
2022/06/05 09:08:22;;;;;;;11.13;7.35;;;;;;;;;;5026620;28;20041;-60
2022/06/05 09:10:52;;;;;;;8.35;7.15;;;;;;;;;;5033984;28;20073;-59
2022/06/05 09:13:20;;;;;;;10.05;7.45;;;;;;;;;;5011832;28;20030;-60
2022/06/05 09:16:01;;;;;;;8.88;7.18;;;;;;;;;;5029060;28;20044;-59
2022/06/05 09:18:37;;;;;;;10.98;7.07;;;;;;;;;;5031097;28;20036;-59
2022/06/05 09:21:24;;;;;;;8.85;6.75;;;;;;;;;;5032155;28;20044;-59
2022/06/05 09:24:07;;;;;;;8.85;6.80;;;;;;;;;;5031374;28;20183;-59
2022/06/05 09:26:45;;;;;;;8.32;6.57;;;;;;;;;;5030463;28;20218;-59
2022/06/05 09:29:42;;;;;;;8.23;6.18;;;;;;;;;;5031531;28;20389;-59
2022/06/05 09:32:16;;;;;;;8.88;6.15;;;;;;;;;;5032108;28;20041;-59
2022/06/05 09:34:52;;;;;;;7.65;6.57;;;;;;;;;;5031716;28;20474;-58
2022/06/05 09:37:28;;;;;;;6.90;6.20;;;;;;;;;;5031123;28;20108;-59
2022/06/05 09:40:15;;;;;;;6.38;5.65;;;;;;;;;;5030087;28;20087;-59
2022/06/05 09:43:04;;;;;;;9.32;6.45;;;;;;;;;;5031861;28;20462;-59
2022/06/05 09:46:08;;;;;;;7.32;6.30;;;;;;;;;;5030570;28;20021;-59
2022/06/05 09:48:43;;;;;;;7.30;6.35;;;;;;;;;;5030881;28;20044;-58
2022/06/05 09:51:11;;;;;;;9.50;6.88;;;;;;;;;;5031798;28;20033;-59
2022/06/05 09:53:45;;;;;;;7.50;6.70;;;;;;;;;;5029458;28;20040;-59
2022/06/05 09:58:24;;;;;;;12.95;7.00;;;;;;;;;;5046776;28;20041;-59
2022/06/05 09:59:40;;;;;;;9.18;6.70;;;;;;;;;;5030202;28;20052;-59
2022/06/05 10:02:07;;;;;;;8.40;6.47;;;;;;;;;;5011194;28;20040;-58
2022/06/05 10:04:34;;;;;;;8.35;6.90;;;;;;;;;;5028793;28;20638;-59
2022/06/05 10:07:06;;;;;;;8.68;7.10;;;;;;;;;;5029906;28;20043;-60
2022/06/05 10:09:34;;;;;;;7.82;6.80;;;;;;;;;;5021424;28;20044;-60
2022/06/05 10:12:10;;;;;;;8.90;6.97;;;;;;;;;;5027094;28;20467;-58
2022/06/05 10:14:38;;;;;;;8.70;6.90;;;;;;;;;;5030737;28;20044;-58
2022/06/05 10:17:12;;;;;;;7.25;6.30;;;;;;;;;;5032043;28;20033;-58
2022/06/05 10:20:06;;;;;;;7.72;6.93;;;;;;;;;;5030937;28;20041;-58
2022/06/05 10:22:59;;;;;;;7.78;6.78;;;;;;;;;;5028120;28;20049;-58
2022/06/05 10:25:35;;;;;;;9.57;6.90;;;;;;;;;;5010949;28;20056;-58
2022/06/05 10:28:05;;;;;;;9.45;7.00;;;;;;;;;;5011840;28;20104;-58
2022/06/05 10:30:35;;;;;;;7.60;6.80;;;;;;;;;;5010749;28;20029;-58
2022/06/05 10:33:16;;;;;;;7.95;7.03;;;;;;;;;;4994245;28;20030;-58
2022/06/05 10:36:02;;;;;;;8.02;6.53;;;;;;;;;;5011031;28;20037;-58
2022/06/05 10:39:03;;;;;;;7.20;6.50;;;;;;;;;;5027124;28;20034;-59
2022/06/05 10:41:36;;;;;;;;;;;;;;;;;;5029978;28;20401;-58
2022/06/05 10:44:25;;;;;;;6.50;5.85;;;;;;;;;;5023541;28;19944;-58
2022/06/05 10:46:51;;;;;;;7.45;5.43;;;;;;;;;;5031545;28;20489;-59
2022/06/05 10:49:58;;;;;;;7.40;5.57;;;;;;;;;;5030618;28;20030;-59
2022/06/05 10:52:45;;;;;;;5.78;5.20;;;;;;;;;;5028688;28;20037;-58
2022/06/05 10:55:42;;;;;;;6.07;5.47;;;;;;;;;;5011379;28;20060;-59
2022/06/05 10:58:10;;;;;;;6.38;5.10;;;;;;;;;;5028348;28;20033;-59
2022/06/05 11:00:44;;;;;;;5.90;5.18;;;;;;;;;;5030575;28;20494;-60
2022/06/05 11:03:20;;;;;;;6.18;5.47;;;;;;;;;;5031025;28;20084;-60
2022/06/05 11:06:03;;;;;;;7.75;5.68;;;;;;;;;;5031123;28;20041;-60
2022/06/05 11:08:49;;;;;;;6.75;5.65;;;;;;;;;;5030368;28;20036;-59
2022/06/05 11:14:40;;;;;;;7.35;5.90;;;;;;;;;;4966085;28;20045;-59
2022/06/05 11:17:37;;;;;;;7.43;6.20;;;;;;;;;;4997500;28;20038;-59
2022/06/05 11:20:06;;;;;;;10.13;6.10;;;;;;;;;;5014903;28;20088;-60
2022/06/05 11:22:34;;;;;;;7.07;6.38;;;;;;;;;;5013495;28;20084;-60
2022/06/05 11:25:22;;;;;;;6.88;6.18;;;;;;;;;;5014616;28;20470;-60
2022/06/05 11:28:16;;;;;;;7.22;6.50;;;;;;;;;;5023687;28;20064;-59
2022/06/05 11:30:57;;;;;;;7.82;6.60;;;;;;;;;;5031308;28;20025;-60
2022/06/05 11:33:25;;;;;;;7.50;6.70;;;;;;;;;;5024054;28;20052;-60
2022/06/05 11:36:09;;;;;;;9.50;7.43;;;;;;;;;;5032348;28;20040;-59
2022/06/05 11:38:59;;;;;;;8.75;7.55;;;;;;;;;;5032178;28;20037;-60
2022/06/05 11:41:30;;;;;;;9.57;7.60;;;;;;;;;;5033636;28;20087;-59
2022/06/05 11:44:24;;;;;;;9.55;8.55;;;;;;;;;;5015325;28;20041;-59
2022/06/05 11:46:58;;;;;;;10.52;9.27;;;;;;;;;;5018222;28;20076;-60
2022/06/05 11:49:38;;;;;;;11.80;9.10;;;;;;;;;;5046516;28;20055;-60
2022/06/05 11:52:03;;;;;;;10.80;9.70;;;;;;;;;;5031492;28;20033;-59
2022/06/05 11:54:39;;;;;;;10.60;9.43;;;;;;;;;;5029431;28;20036;-59
2022/06/05 11:57:34;;;;;;;10.38;9.38;;;;;;;;;;5032547;28;20478;-59
2022/06/05 12:00:04;;;;;;;10.70;9.60;;;;;;;;;;5031041;28;20041;-59
2022/06/05 12:02:40;;;;;;;9.45;8.55;;;;;;;;;;5013370;28;20030;-59
2022/06/05 12:05:20;;;;;;;11.77;9.90;;;;;;;;;;5011056;28;20041;-60
2022/06/05 12:07:48;;;;;;;11.43;9.65;;;;;;;;;;5031454;28;20034;-60
2022/06/05 12:10:24;;;;;;;10.90;9.80;;;;;;;;;;5023901;28;20500;-59
2022/06/05 12:13:19;;;;;;;11.07;9.85;;;;;;;;;;5031989;28;20029;-60
2022/06/05 12:16:21;;;;;;;11.57;10.30;;;;;;;;;;5004571;28;20461;-60
2022/06/05 12:18:56;;;;;;;11.18;10.07;;;;;;;;;;4993535;28;20041;-60
2022/06/05 12:21:36;;;;;;;10.50;9.40;;;;;;;;;;5031611;28;20058;-61
2022/06/05 12:24:17;;;;;;;10.50;9.50;;;;;;;;;;5030878;28;20072;-58
2022/06/05 12:26:54;;;;;;;10.82;9.60;;;;;;;;;;5028711;28;20104;-59
2022/06/05 12:29:31;;;;;;;9.98;8.98;;;;;;;;;;5032215;28;20033;-59
2022/06/05 12:32:03;;;;;;;9.52;8.52;;;;;;;;;;5030637;28;20037;-59
2022/06/05 12:34:43;;;;;;;12.07;8.88;;;;;;;;;;5031441;28;20047;-59
2022/06/05 12:37:23;;;;;;;9.90;8.75;;;;;;;;;;5030121;28;20043;-59
2022/06/05 12:40:01;;;;;;;11.37;8.30;;;;;;;;;;5029200;28;20080;-58
2022/06/05 12:42:26;;;;;;;9.57;8.55;;;;;;;;;;5028562;28;20045;-59
2022/06/05 12:44:58;;;;;;;9.32;8.00;;;;;;;;;;5014724;28;20402;-59
2022/06/05 12:47:45;;;;;;;9.60;7.80;;;;;;;;;;5026672;28;20030;-60
2022/06/05 12:50:28;;;;;;;9.77;7.78;;;;;;;;;;5033069;28;20117;-59
2022/06/05 12:53:10;;;;;;;8.82;7.93;;;;;;;;;;5030212;28;20041;-61
2022/06/05 12:55:45;;;;;;;10.55;7.93;;;;;;;;;;5029605;28;20103;-57
2022/06/05 12:58:16;;;;;;;10.10;7.97;;;;;;;;;;5033659;28;20033;-59
2022/06/05 13:00:42;;;;;;;9.52;7.18;;;;;;;;;;5030742;28;20474;-57
2022/06/05 13:03:16;;;;;;;8.55;7.65;;;;;;;;;;5032407;28;20048;-56
2022/06/05 13:06:16;;;;;;;7.97;7.15;;;;;;;;;;5030712;28;20110;-57
2022/06/05 13:09:22;;;;;;;8.52;6.88;;;;;;;;;;5042450;28;20038;-58
2022/06/05 13:11:56;;;;;;;7.28;6.57;;;;;;;;;;5007150;28;20042;-57
2022/06/05 13:14:40;;;;;;;7.18;6.20;;;;;;;;;;5018422;28;20061;-57
2022/06/05 13:17:16;;;;;;;7.00;6.25;;;;;;;;;;5021722;28;20459;-58
2022/06/05 13:19:48;;;;;;;7.45;6.75;;;;;;;;;;5011481;28;20105;-58
2022/06/05 13:22:55;;;;;;;7.90;6.20;;;;;;;;;;5029162;28;20191;-56
2022/06/05 13:25:49;;;;;;;7.03;6.32;;;;;;;;;;5014279;28;20038;-59
2022/06/05 13:28:32;;;;;;;7.00;6.20;;;;;;;;;;5023034;28;20112;-60
2022/06/05 13:31:46;;;;;;;7.20;6.35;;;;;;;;;;5029704;28;20029;-59
2022/06/05 13:34:27;;;;;;;6.90;6.20;;;;;;;;;;5002120;28;20052;-59
2022/06/05 13:37:11;;;;;;;9.57;6.88;;;;;;;;;;5036092;28;20041;-59
2022/06/05 13:39:47;;;;;;;7.30;6.60;;;;;;;;;;5030653;28;20041;-59
2022/06/05 13:42:18;;;;;;;11.20;7.30;;;;;;;;;;5029961;28;20040;-59
2022/06/05 13:44:51;;;;;;;8.38;7.57;;;;;;;;;;5028900;28;20037;-59
2022/06/05 13:47:35;;;;;;;10.02;7.85;;;;;;;;;;5030445;28;20036;-59
2022/06/05 13:50:35;;;;;;;8.68;7.88;;;;;;;;;;5029031;28;20036;-59
2022/06/05 13:53:21;;;;;;;9.43;8.30;;;;;;;;;;5030579;28;20124;-59
2022/06/05 13:56:13;;;;;;;10.57;8.80;;;;;;;;;;5026413;28;20056;-59
2022/06/05 13:58:41;;;;;;;10.15;8.82;;;;;;;;;;5026382;28;20371;-60
2022/06/05 14:01:29;;;;;;;10.52;9.50;;;;;;;;;;5030836;28;20045;-61
2022/06/05 14:03:58;;;;;;;9.95;8.95;;;;;;;;;;5027257;28;20084;-59
2022/06/05 14:06:26;;;;;;;10.10;9.15;;;;;;;;;;5030229;28;20065;-60
2022/06/05 14:08:59;;;;;;;11.55;9.38;;;;;;;;;;5029757;28;20037;-60
2022/06/05 14:11:40;;;;;;;10.75;9.25;;;;;;;;;;5030790;28;20488;-59
2022/06/05 14:14:06;;;;;;;;;;;;;;;;;;5011400;28;20128;-58
2022/06/05 14:16:53;;;;;;;12.82;9.63;;;;;;;;;;5028728;28;19913;-62
2022/06/05 14:19:23;;;;;;;11.05;9.30;;;;;;;;;;5030525;28;20034;-60
2022/06/05 14:22:00;;;;;;;10.65;9.57;;;;;;;;;;5029594;28;20029;-61
2022/06/05 14:24:30;;;;;;;12.52;9.70;;;;;;;;;;5023504;28;20045;-65
2022/06/05 14:26:59;;;;;;;11.35;10.20;;;;;;;;;;5031197;28;20030;-65
2022/06/05 14:29:31;;;;;;;11.93;10.00;;;;;;;;;;5030433;28;20029;-61
2022/06/05 14:32:09;;;;;;;13.40;9.93;;;;;;;;;;5011392;28;20061;-67
2022/06/05 14:34:42;;;;;;;12.63;10.15;;;;;;;;;;5028324;28;20040;-67
2022/06/05 14:37:36;;;;;;;12.77;9.60;;;;;;;;;;5031396;28;20029;-64
2022/06/05 14:40:11;;;;;;;12.80;10.07;;;;;;;;;;5018760;28;20044;-67
2022/06/05 14:42:43;;;;;;;11.82;10.30;;;;;;;;;;5028542;28;20033;-65
2022/06/05 14:45:21;;;;;;;11.80;10.60;;;;;;;;;;5012313;28;20108;-67
2022/06/05 14:48:09;;;;;;;11.57;9.95;;;;;;;;;;5028562;28;20104;-61
2022/06/05 14:50:42;;;;;;;12.52;9.80;;;;;;;;;;5032327;28;20037;-61
2022/06/05 14:53:27;;;;;;;11.90;9.57;;;;;;;;;;5022179;28;20033;-61
2022/06/05 14:58:58;;;;;;;10.75;9.65;;;;;;;;;;5022470;28;20079;-61
2022/06/05 15:01:34;;;;;;;10.95;9.75;;;;;;;;;;5035093;28;20041;-61
2022/06/05 15:04:07;;;;;;;10.82;9.73;;;;;;;;;;5032692;28;20457;-61
2022/06/05 15:06:38;;;;;;;11.25;9.75;;;;;;;;;;5032838;28;20128;-61
2022/06/05 15:09:12;;;;;;;11.18;10.05;;;;;;;;;;5028609;28;20033;-61
2022/06/05 15:11:44;;;;;;;12.85;10.32;;;;;;;;;;5031368;28;20487;-61
2022/06/05 15:14:17;;;;;;;11.23;10.13;;;;;;;;;;5035050;28;20378;-61
2022/06/05 15:16:51;;;;;;;11.75;10.60;;;;;;;;;;5030743;28;20043;-61
2022/06/05 15:19:37;;;;;;;12.13;10.93;;;;;;;;;;5028397;28;20037;-61
2022/06/05 15:22:05;;;;;;;13.05;11.43;;;;;;;;;;5016990;28;20074;-62
2022/06/05 15:24:37;;;;;;;12.88;11.55;;;;;;;;;;5026735;28;20029;-61
2022/06/05 15:27:23;;;;;;;12.07;10.88;;;;;;;;;;5034599;28;20106;-62
2022/06/05 15:29:59;;;;;;;13.15;11.52;;;;;;;;;;5027461;28;20032;-61
2022/06/05 15:32:33;;;;;;;13.15;11.75;;;;;;;;;;5014903;28;20045;-61
2022/06/05 15:35:23;;;;;;;12.80;11.50;;;;;;;;;;5020997;28;20043;-61
2022/06/05 15:38:23;;;;;;;12.88;11.57;;;;;;;;;;5001980;28;20041;-63
2022/06/05 15:40:55;;;;;;;15.27;12.35;;;;;;;;;;5002333;28;20498;-60